AUA973 LOWW-BIKF
Flight info
| Callsign | AUA973 |
|---|---|
| Flight time | N/A |
| Altitude | 36000 |
| Route | UNGU2C/29 LANUX DCT VLM DCT HDO M748 ESIKA DCT BUMIL DCT DOSUR DCT MITSI DCT ORVIK DCT BESGA DCT RATSU/M078F360 DCT ALDAN DCT ASRUN ASRUN3K |
| Aircraft | A320/M-SDE3FGHIRWY/LB1 |
Departure
| Time | 2026-04-25 19:37 |
|---|---|
| Airport | Vienna International Airport (LOWW) |
Arrival
| Time | N/A |
|---|---|
| Airport | Keflavik International Airport (BIKF) |
| Time | Latitude | Longitude | Altitude | Speed | Heading |
|---|---|---|---|---|---|
| 2026-04-25 19:09 | 48.11421 | 16.57130 | 613 ft | 0 kts | 203° |
| 2026-04-25 19:10 | 48.11430 | 16.57133 | 623 ft | 0 kts | 206° |
| 2026-04-25 19:32 | 48.11415 | 16.57122 | 613 ft | 5 kts | 206° |
| 2026-04-25 19:32 | 48.11403 | 16.57113 | 613 ft | 7 kts | 206° |
| 2026-04-25 19:33 | 48.11302 | 16.57056 | 609 ft | 9 kts | 176° |
| 2026-04-25 19:33 | 48.11257 | 16.57126 | 618 ft | 10 kts | 117° |
| 2026-04-25 19:33 | 48.11222 | 16.57234 | 615 ft | 17 kts | 115° |
| 2026-04-25 19:33 | 48.11171 | 16.57397 | 611 ft | 16 kts | 118° |
| 2026-04-25 19:34 | 48.11125 | 16.57535 | 609 ft | 14 kts | 116° |
| 2026-04-25 19:34 | 48.11078 | 16.57642 | 609 ft | 11 kts | 147° |
| 2026-04-25 19:34 | 48.11021 | 16.57631 | 618 ft | 3 kts | 206° |
| 2026-04-25 19:34 | 48.11020 | 16.57631 | 618 ft | 0 kts | 206° |
| 2026-04-25 19:35 | 48.11002 | 16.57618 | 609 ft | 8 kts | 206° |
| 2026-04-25 19:35 | 48.10927 | 16.57560 | 620 ft | 11 kts | 213° |
| 2026-04-25 19:35 | 48.10932 | 16.57482 | 612 ft | 0 kts | 297° |
| 2026-04-25 19:35 | 48.10933 | 16.57480 | 611 ft | 2 kts | 296° |
| 2026-04-25 19:36 | 48.11011 | 16.57235 | 615 ft | 60 kts | 296° |
| 2026-04-25 19:36 | 48.11287 | 16.56389 | 618 ft | 119 kts | 296° |
| 2026-04-25 19:36 | 48.11724 | 16.55049 | 623 ft | 164 kts | 296° |
| 2026-04-25 19:36 | 48.12216 | 16.53518 | 1190 ft | 164 kts | 287° |
| 2026-04-25 19:37 | 48.12051 | 16.51869 | 1829 ft | 171 kts | 242° |
| 2026-04-25 19:37 | 48.11089 | 16.50587 | 2152 ft | 201 kts | 223° |
| 2026-04-25 19:37 | 48.09905 | 16.49360 | 2607 ft | 211 kts | 222° |
| 2026-04-25 19:37 | 48.08727 | 16.48134 | 2961 ft | 201 kts | 223° |
| 2026-04-25 19:38 | 48.07733 | 16.46751 | 3079 ft | 191 kts | 240° |
| 2026-04-25 19:38 | 48.07098 | 16.45047 | 3197 ft | 186 kts | 252° |
| 2026-04-25 19:38 | 48.06590 | 16.43266 | 3333 ft | 186 kts | 253° |
| 2026-04-25 19:38 | 48.06076 | 16.41473 | 3450 ft | 190 kts | 252° |
| 2026-04-25 19:39 | 48.05540 | 16.39633 | 3580 ft | 196 kts | 251° |
| 2026-04-25 19:39 | 48.04982 | 16.37738 | 3711 ft | 202 kts | 251° |
| 2026-04-25 19:39 | 48.04408 | 16.35803 | 3846 ft | 206 kts | 251° |
| 2026-04-25 19:39 | 48.03838 | 16.33811 | 3966 ft | 210 kts | 255° |
| 2026-04-25 19:40 | 48.03487 | 16.31677 | 4074 ft | 214 kts | 268° |
| 2026-04-25 19:40 | 48.03472 | 16.29440 | 4223 ft | 219 kts | 277° |
| 2026-04-25 19:40 | 48.03582 | 16.27173 | 4424 ft | 224 kts | 277° |
| 2026-04-25 19:40 | 48.03703 | 16.24839 | 4655 ft | 227 kts | 277° |
| 2026-04-25 19:41 | 48.03901 | 16.22481 | 4885 ft | 229 kts | 286° |
| 2026-04-25 19:41 | 48.04437 | 16.20256 | 4993 ft | 227 kts | 300° |
| 2026-04-25 19:41 | 48.05331 | 16.18319 | 5020 ft | 227 kts | 310° |
| 2026-04-25 19:41 | 48.05667 | 16.17699 | 5018 ft | 227 kts | 310° |
| 2026-04-25 19:42 | 48.07334 | 16.14674 | 5025 ft | 226 kts | 310° |
| 2026-04-25 19:42 | 48.08333 | 16.12855 | 5028 ft | 226 kts | 310° |
| 2026-04-25 19:42 | 48.09331 | 16.11032 | 5034 ft | 227 kts | 310° |
| 2026-04-25 19:42 | 48.10329 | 16.09208 | 5032 ft | 226 kts | 310° |
| 2026-04-25 19:43 | 48.11315 | 16.07373 | 5033 ft | 226 kts | 309° |
| 2026-04-25 19:43 | 48.12308 | 16.05559 | 5027 ft | 225 kts | 314° |
| 2026-04-25 19:43 | 48.13503 | 16.04051 | 5025 ft | 225 kts | 327° |
| 2026-04-25 19:43 | 48.14908 | 16.03012 | 5019 ft | 227 kts | 340° |
| 2026-04-25 19:44 | 48.16403 | 16.02253 | 5035 ft | 226 kts | 340° |
| 2026-04-25 19:44 | 48.17899 | 16.01510 | 5038 ft | 227 kts | 340° |
| 2026-04-25 19:44 | 48.19388 | 16.00754 | 5009 ft | 225 kts | 339° |
| 2026-04-25 19:44 | 48.20868 | 15.99970 | 4991 ft | 226 kts | 338° |
| 2026-04-25 19:45 | 48.22351 | 15.99186 | 5008 ft | 226 kts | 339° |
| 2026-04-25 19:45 | 48.23822 | 15.98424 | 5025 ft | 227 kts | 339° |
| 2026-04-25 19:45 | 48.25310 | 15.97645 | 5007 ft | 227 kts | 338° |
| 2026-04-25 19:45 | 48.26817 | 15.96842 | 5029 ft | 227 kts | 338° |
| 2026-04-25 19:46 | 48.28320 | 15.96219 | 5030 ft | 230 kts | 352° |
| 2026-04-25 19:46 | 48.29896 | 15.96645 | 5021 ft | 237 kts | 25° |
| 2026-04-25 19:46 | 48.31296 | 15.98075 | 5021 ft | 243 kts | 33° |
| 2026-04-25 19:46 | 48.32603 | 15.99691 | 5000 ft | 243 kts | 36° |
| 2026-04-25 19:47 | 48.33886 | 16.01355 | 5001 ft | 245 kts | 37° |
| 2026-04-25 19:47 | 48.35179 | 16.03022 | 5017 ft | 244 kts | 36° |
| 2026-04-25 19:47 | 48.36456 | 16.04658 | 5042 ft | 244 kts | 36° |
| 2026-04-25 19:47 | 48.37766 | 16.06337 | 5018 ft | 244 kts | 36° |
| 2026-04-25 19:48 | 48.39039 | 16.07974 | 5022 ft | 244 kts | 36° |
| 2026-04-25 19:48 | 48.40328 | 16.09640 | 5021 ft | 244 kts | 36° |
| 2026-04-25 19:48 | 48.41617 | 16.11308 | 5028 ft | 245 kts | 36° |
| 2026-04-25 19:48 | 48.42906 | 16.12982 | 5024 ft | 245 kts | 36° |
| 2026-04-25 19:49 | 48.44195 | 16.14652 | 5023 ft | 244 kts | 36° |
| 2026-04-25 19:49 | 48.44632 | 16.15218 | 5018 ft | 244 kts | 36° |
| 2026-04-25 19:49 | 48.46354 | 16.17458 | 5029 ft | 244 kts | 36° |
| 2026-04-25 19:49 | 48.47638 | 16.19132 | 5020 ft | 244 kts | 38° |
| 2026-04-25 19:50 | 48.48891 | 16.23884 | 5020 ft | 258 kts | 84° |
| 2026-04-25 19:50 | 48.48955 | 16.26592 | 5018 ft | 259 kts | 85° |
| 2026-04-25 19:50 | 48.48990 | 16.29305 | 5013 ft | 259 kts | 86° |
| 2026-04-25 19:51 | 48.49027 | 16.32019 | 5014 ft | 259 kts | 86° |
| 2026-04-25 19:51 | 48.48945 | 16.34687 | 5002 ft | 261 kts | 103° |
| 2026-04-25 19:51 | 48.48104 | 16.37090 | 5014 ft | 262 kts | 130° |
| 2026-04-25 19:51 | 48.46861 | 16.39113 | 5016 ft | 263 kts | 135° |
| 2026-04-25 19:52 | 48.45566 | 16.41068 | 5016 ft | 264 kts | 136° |
| 2026-04-25 19:52 | 48.44260 | 16.43013 | 5006 ft | 264 kts | 136° |
| 2026-04-25 19:52 | 48.42953 | 16.44955 | 5005 ft | 264 kts | 136° |
| 2026-04-25 19:52 | 48.41647 | 16.46895 | 5007 ft | 264 kts | 136° |
| 2026-04-25 19:53 | 48.40338 | 16.48836 | 5012 ft | 264 kts | 136° |
| 2026-04-25 19:53 | 48.39029 | 16.50776 | 5003 ft | 264 kts | 136° |
| 2026-04-25 19:53 | 48.37722 | 16.52714 | 5010 ft | 264 kts | 136° |
| 2026-04-25 19:53 | 48.36413 | 16.54655 | 5013 ft | 264 kts | 136° |
| 2026-04-25 19:54 | 48.35105 | 16.56592 | 5017 ft | 264 kts | 136° |
| 2026-04-25 19:54 | 48.33799 | 16.58523 | 5009 ft | 263 kts | 136° |
| 2026-04-25 19:54 | 48.32493 | 16.60449 | 5008 ft | 263 kts | 136° |